Time,TemperatureF,DewpointF,PressureIn,WindDirection,WindDirectionDegrees,WindSpeedMPH,WindSpeedGustMPH,Humidity,HourlyPrecipIn,Conditions,Clouds,dailyrainin,SoftwareType,DateUTC
2013-03-30 00:23:00,45.0,41.0,30.24,NNW,333,0.0,5.0,86,0.00,,,8.44,,2013-03-30 04:23:00,
2013-03-30 00:33:00,45.0,41.0,30.24,NNW,333,0.0,5.0,86,0.00,,,8.44,,2013-03-30 04:33:00,
2013-03-30 00:43:00,45.0,41.0,30.24,NNW,333,0.0,5.0,86,0.00,,,8.44,,2013-03-30 04:43:00,
2013-03-30 00:53:00,44.0,40.0,30.24,NNW,333,0.0,4.0,86,0.00,,,8.44,,2013-03-30 04:53:00,
2013-03-30 01:02:00,44.0,40.0,30.24,NNW,333,0.0,4.0,86,0.00,,,8.44,,2013-03-30 05:02:00,
2013-03-30 01:12:00,44.0,40.0,30.24,NNW,333,0.0,4.0,86,0.00,,,8.44,,2013-03-30 05:12:00,
2013-03-30 01:22:00,45.0,41.0,30.24,NNW,333,0.0,0.0,86,0.00,,,8.44,,2013-03-30 05:22:00,
2013-03-30 01:32:00,45.0,41.0,30.24,NNW,333,0.0,0.0,86,0.00,,,8.44,,2013-03-30 05:32:00,
2013-03-30 01:42:00,45.0,41.0,30.24,NNW,333,0.0,0.0,86,0.00,,,8.44,,2013-03-30 05:42:00,
2013-03-30 01:52:00,44.0,40.0,30.21,NNW,333,5.0,5.0,86,0.00,,,8.44,,2013-03-30 05:52:00,
2013-03-30 02:02:00,44.0,40.0,30.21,NNW,333,5.0,5.0,86,0.00,,,8.44,,2013-03-30 06:02:00,
2013-03-30 02:12:00,44.0,40.0,30.21,NNW,333,5.0,5.0,86,0.00,,,8.44,,2013-03-30 06:12:00,
2013-03-30 02:23:00,44.0,40.0,30.21,NNE,27,0.0,5.0,86,0.00,,,8.44,,2013-03-30 06:23:00,
2013-03-30 02:32:00,44.0,40.0,30.21,NNE,27,0.0,5.0,86,0.00,,,8.44,,2013-03-30 06:32:00,
2013-03-30 02:42:00,44.0,40.0,30.21,NNE,27,0.0,5.0,86,0.00,,,8.44,,2013-03-30 06:42:00,
2013-03-30 02:52:00,44.0,40.0,30.21,NNE,28,0.0,3.0,86,0.00,,,8.44,,2013-03-30 06:52:00,
2013-03-30 03:02:00,44.0,40.0,30.21,NNE,28,0.0,3.0,86,0.00,,,8.44,,2013-03-30 07:02:00,
2013-03-30 03:12:00,44.0,40.0,30.21,NNE,28,0.0,3.0,86,0.00,,,8.44,,2013-03-30 07:12:00,
2013-03-30 03:22:00,44.0,40.0,30.21,NNE,27,0.0,3.0,86,0.00,,,8.44,,2013-03-30 07:22:00,
2013-03-30 03:32:00,44.0,40.0,30.21,NNE,27,0.0,3.0,86,0.00,,,8.44,,2013-03-30 07:32:00,
2013-03-30 03:42:00,44.0,40.0,30.21,NNE,27,0.0,3.0,86,0.00,,,8.44,,2013-03-30 07:42:00,
2013-03-30 03:52:00,44.0,40.0,30.21,NNE,27,0.0,5.0,86,0.00,,,8.44,,2013-03-30 07:52:00,
2013-03-30 04:02:00,44.0,40.0,30.21,NNE,27,0.0,5.0,86,0.00,,,8.44,,2013-03-30 08:02:00,
2013-03-30 04:12:00,44.0,40.0,30.21,NNE,27,0.0,5.0,86,0.00,,,8.44,,2013-03-30 08:12:00,
2013-03-30 04:22:00,45.0,41.0,30.21,NNE,27,0.0,4.0,86,0.00,,,8.44,,2013-03-30 08:22:00,
2013-03-30 04:32:00,45.0,41.0,30.21,NNE,27,0.0,4.0,86,0.00,,,8.44,,2013-03-30 08:32:00,
2013-03-30 04:42:00,45.0,41.0,30.21,NNE,27,0.0,4.0,86,0.00,,,8.44,,2013-03-30 08:42:00,
2013-03-30 04:53:00,44.0,40.0,30.18,NNE,26,0.0,0.0,86,0.00,,,8.44,,2013-03-30 08:53:00,
2013-03-30 05:02:00,44.0,40.0,30.18,NNE,26,0.0,0.0,86,0.00,,,8.44,,2013-03-30 09:02:00,
2013-03-30 05:12:00,44.0,40.0,30.18,NNE,26,0.0,0.0,86,0.00,,,8.44,,2013-03-30 09:12:00,
2013-03-30 05:22:00,44.0,40.0,30.18,NNE,26,0.0,0.0,86,0.00,,,8.44,,2013-03-30 09:22:00,
2013-03-30 05:30:00,44.0,40.0,30.18,NNE,27,0.0,4.0,86,0.00,,,8.44,,2013-03-30 09:30:00,
2013-03-30 05:54:00,44.0,40.0,30.18,NNE,27,0.0,4.0,86,0.00,,,8.44,,2013-03-30 09:54:00,
2013-03-30 06:03:00,44.0,40.0,30.18,NNE,27,0.0,4.0,86,0.00,,,8.44,,2013-03-30 10:03:00,
2013-03-30 06:13:00,44.0,40.0,30.18,NNE,27,0.0,4.0,86,0.00,,,8.44,,2013-03-30 10:13:00,
2013-03-30 06:23:00,44.0,40.0,30.18,NNE,27,0.0,4.0,86,0.00,,,8.44,,2013-03-30 10:23:00,
2013-03-30 07:23:00,44.0,40.0,30.18,NNE,26,0.0,6.0,85,0.00,,,8.44,,2013-03-30 11:23:00,
2013-03-30 07:33:00,44.0,40.0,30.18,NNE,26,0.0,6.0,85,0.00,,,8.44,,2013-03-30 11:33:00,
2013-03-30 07:43:00,44.0,40.0,30.18,NNE,26,0.0,6.0,85,0.00,,,8.44,,2013-03-30 11:43:00,
2013-03-30 07:53:00,45.0,41.0,30.21,NNE,27,0.0,5.0,85,0.00,,,8.44,,2013-03-30 11:53:00,
2013-03-30 08:02:00,45.0,41.0,30.21,NNE,27,0.0,5.0,85,0.00,,,8.44,,2013-03-30 12:02:00,
2013-03-30 08:13:00,45.0,41.0,30.21,NNE,27,0.0,5.0,85,0.00,,,8.44,,2013-03-30 12:13:00,
2013-03-30 08:23:00,45.0,40.0,30.21,NNE,27,0.0,5.0,83,0.00,,,8.44,,2013-03-30 12:23:00,
2013-03-30 08:30:00,47.0,42.0,30.21,WNW,296,0.0,3.0,83,0.00,,,8.44,,2013-03-30 12:30:00,
2013-03-30 08:32:00,45.0,40.0,30.21,NNE,27,0.0,5.0,83,0.00,,,8.44,,2013-03-30 12:32:00,
2013-03-30 08:43:00,45.0,40.0,30.21,NNE,27,0.0,5.0,83,0.00,,,8.44,,2013-03-30 12:43:00,
2013-03-30 08:53:00,47.0,42.0,30.21,WNW,296,0.0,3.0,83,0.00,,,8.44,,2013-03-30 12:53:00,
2013-03-30 09:02:00,47.0,42.0,30.21,WNW,296,0.0,3.0,83,0.00,,,8.44,,2013-03-30 13:02:00,
2013-03-30 09:12:00,47.0,42.0,30.21,WNW,296,0.0,3.0,83,0.00,,,8.44,,2013-03-30 13:12:00,
2013-03-30 09:22:00,47.0,42.0,30.21,WNW,296,0.0,3.0,83,0.00,,,8.44,,2013-03-30 13:22:00,
2013-03-30 09:53:00,49.0,41.0,30.21,NNW,345,4.0,8.0,73,0.00,,,8.44,,2013-03-30 13:53:00,
2013-03-30 10:00:00,51.0,40.0,30.21,NNE,18,0.0,7.0,66,0.00,,,8.44,,2013-03-30 14:00:00,
2013-03-30 10:03:00,49.0,41.0,30.21,NNW,345,4.0,8.0,73,0.00,,,8.44,,2013-03-30 14:03:00,
2013-03-30 10:12:00,49.0,41.0,30.21,NNW,345,4.0,8.0,73,0.00,,,8.44,,2013-03-30 14:12:00,
2013-03-30 10:23:00,51.0,40.0,30.21,NNE,18,0.0,7.0,66,0.00,,,8.44,,2013-03-30 14:23:00,
2013-03-30 10:32:00,51.0,40.0,30.21,NNE,18,0.0,7.0,66,0.00,,,8.44,,2013-03-30 14:32:00,
2013-03-30 10:43:00,51.0,40.0,30.21,NNE,18,0.0,7.0,66,0.00,,,8.44,,2013-03-30 14:43:00,
2013-03-30 10:52:00,51.0,40.0,30.21,NNE,18,0.0,7.0,66,0.00,,,8.44,,2013-03-30 14:52:00,
2013-03-30 11:23:00,53.0,39.0,30.21,NNW,339,3.0,7.0,59,0.00,,,8.44,,2013-03-30 15:23:00,
2013-03-30 11:34:00,53.0,39.0,30.21,NNW,339,3.0,7.0,59,0.00,,,8.44,,2013-03-30 15:34:00,
2013-03-30 11:43:00,53.0,39.0,30.21,NNW,339,3.0,7.0,59,0.00,,,8.44,,2013-03-30 15:43:00,
2013-03-30 11:53:00,55.0,39.0,30.21,NNE,12,6.0,7.0,54,0.00,,,8.44,,2013-03-30 15:53:00,
2013-03-30 12:03:00,55.0,39.0,30.21,NNE,12,6.0,7.0,54,0.00,,,8.44,,2013-03-30 16:03:00,
2013-03-30 12:13:00,58.0,38.0,30.18,NNW,328,5.0,9.0,47,0.00,,,8.44,,2013-03-30 16:13:00,
2013-03-30 12:23:00,58.0,38.0,30.18,NNW,328,5.0,9.0,47,0.00,,,8.44,,2013-03-30 16:23:00,
2013-03-30 12:33:00,58.0,38.0,30.18,NNW,328,5.0,9.0,47,0.00,,,8.44,,2013-03-30 16:33:00,
2013-03-30 12:43:00,58.0,38.0,30.18,NNW,328,5.0,9.0,47,0.00,,,8.44,,2013-03-30 16:43:00,
2013-03-30 12:53:00,61.0,41.0,30.18,NNW,346,3.0,8.0,47,0.00,,,8.44,,2013-03-30 16:53:00,
2013-03-30 13:02:00,61.0,41.0,30.18,NNW,346,3.0,8.0,47,0.00,,,8.44,,2013-03-30 17:02:00,
2013-03-30 13:13:00,61.0,41.0,30.18,NNW,346,3.0,8.0,47,0.00,,,8.44,,2013-03-30 17:13:00,
2013-03-30 13:23:00,65.0,42.0,30.18,North,351,3.0,7.0,43,0.00,,,8.44,,2013-03-30 17:23:00,
2013-03-30 13:32:00,65.0,42.0,30.18,North,351,3.0,7.0,43,0.00,,,8.44,,2013-03-30 17:32:00,
2013-03-30 13:43:00,65.0,42.0,30.18,North,351,3.0,7.0,43,0.00,,,8.44,,2013-03-30 17:43:00,
2013-03-30 13:53:00,67.0,42.0,30.15,SW,218,4.0,7.0,40,0.00,,,8.44,,2013-03-30 17:53:00,
2013-03-30 14:03:00,67.0,42.0,30.15,SW,218,4.0,7.0,40,0.00,,,8.44,,2013-03-30 18:03:00,
2013-03-30 14:13:00,68.0,42.0,30.15,SSE,167,0.0,7.0,39,0.00,,,8.44,,2013-03-30 18:13:00,
2013-03-30 14:22:00,68.0,42.0,30.15,SSE,167,0.0,7.0,39,0.00,,,8.44,,2013-03-30 18:22:00,
2013-03-30 14:30:00,73.0,44.0,30.15,South,171,5.0,8.0,36,0.00,,,8.44,,2013-03-30 18:30:00,
2013-03-30 14:32:00,68.0,42.0,30.15,SSE,167,0.0,7.0,39,0.00,,,8.44,,2013-03-30 18:32:00,
2013-03-30 14:43:00,68.0,42.0,30.15,SSE,167,0.0,7.0,39,0.00,,,8.44,,2013-03-30 18:43:00,
2013-03-30 14:53:00,73.0,44.0,30.15,South,171,5.0,8.0,36,0.00,,,8.44,,2013-03-30 18:53:00,
2013-03-30 15:03:00,73.0,44.0,30.15,South,171,5.0,8.0,36,0.00,,,8.44,,2013-03-30 19:03:00,
2013-03-30 15:13:00,73.0,44.0,30.15,South,171,5.0,8.0,36,0.00,,,8.44,,2013-03-30 19:13:00,
2013-03-30 15:22:00,73.0,44.0,30.15,South,171,5.0,8.0,36,0.00,,,8.44,,2013-03-30 19:22:00,
2013-03-30 15:53:00,74.0,43.0,30.12,SSE,161,0.0,7.0,33,0.00,,,8.44,,2013-03-30 19:53:00,
2013-03-30 16:02:00,74.0,43.0,30.12,SSE,161,0.0,7.0,33,0.00,,,8.44,,2013-03-30 20:02:00,
2013-03-30 16:12:00,74.0,43.0,30.12,SSE,161,0.0,7.0,33,0.00,,,8.44,,2013-03-30 20:12:00,
2013-03-30 16:22:00,72.0,41.0,30.09,South,181,5.0,8.0,33,0.00,,,8.44,,2013-03-30 20:22:00,
2013-03-30 16:33:00,72.0,41.0,30.09,South,181,5.0,8.0,33,0.00,,,8.44,,2013-03-30 20:33:00,
2013-03-30 16:43:00,72.0,41.0,30.09,South,181,5.0,8.0,33,0.00,,,8.44,,2013-03-30 20:43:00,
2013-03-30 16:53:00,73.0,44.0,30.09,SSW,195,5.0,7.0,35,0.00,,,8.44,,2013-03-30 20:53:00,
2013-03-30 17:02:00,73.0,44.0,30.09,SSW,195,5.0,7.0,35,0.00,,,8.44,,2013-03-30 21:02:00,
2013-03-30 17:13:00,73.0,44.0,30.09,SSW,195,5.0,7.0,35,0.00,,,8.44,,2013-03-30 21:13:00,
2013-03-30 17:22:00,72.0,41.0,30.09,SSW,210,3.0,8.0,32,0.00,,,8.44,,2013-03-30 21:22:00,
2013-03-30 17:34:00,72.0,41.0,30.09,SSW,210,3.0,8.0,32,0.00,,,8.44,,2013-03-30 21:34:00,
2013-03-30 17:43:00,72.0,41.0,30.09,SSW,210,3.0,8.0,32,0.00,,,8.44,,2013-03-30 21:43:00,
2013-03-30 17:53:00,70.0,42.0,30.06,South,170,3.0,7.0,36,0.00,,,8.44,,2013-03-30 21:53:00,
2013-03-30 18:03:00,70.0,42.0,30.06,South,170,3.0,7.0,36,0.00,,,8.44,,2013-03-30 22:03:00,
2013-03-30 18:13:00,70.0,42.0,30.06,South,170,3.0,7.0,36,0.00,,,8.44,,2013-03-30 22:13:00,
2013-03-30 18:23:00,68.0,41.0,30.06,SSE,168,0.0,5.0,38,0.00,,,8.44,,2013-03-30 22:23:00,
2013-03-30 18:33:00,68.0,41.0,30.06,SSE,168,0.0,5.0,38,0.00,,,8.44,,2013-03-30 22:33:00,
2013-03-30 18:44:00,68.0,41.0,30.06,SSE,168,0.0,5.0,38,0.00,,,8.44,,2013-03-30 22:44:00,
2013-03-30 18:54:00,66.0,40.0,30.06,South,169,0.0,4.0,39,0.00,,,8.44,,2013-03-30 22:54:00,
2013-03-30 19:02:00,66.0,40.0,30.06,South,169,0.0,4.0,39,0.00,,,8.44,,2013-03-30 23:02:00,
2013-03-30 19:13:00,66.0,40.0,30.06,South,169,0.0,4.0,39,0.00,,,8.44,,2013-03-30 23:13:00,
2013-03-30 19:22:00,64.0,39.0,30.06,SSE,168,0.0,0.0,40,0.00,,,8.44,,2013-03-30 23:22:00,
2013-03-30 19:33:00,64.0,39.0,30.06,SSE,168,0.0,0.0,40,0.00,,,8.44,,2013-03-30 23:33:00,
2013-03-30 19:43:00,64.0,39.0,30.06,SSE,168,0.0,0.0,40,0.00,,,8.44,,2013-03-30 23:43:00,
2013-03-30 19:53:00,61.0,37.0,30.06,SSE,168,0.0,0.0,41,0.00,,,8.44,,2013-03-30 23:53:00,
2013-03-30 20:02:00,61.0,37.0,30.06,SSE,168,0.0,0.0,41,0.00,,,8.44,,2013-03-31 00:02:00,
2013-03-30 20:12:00,61.0,37.0,30.06,SSE,168,0.0,0.0,41,0.00,,,8.44,,2013-03-31 00:12:00,
2013-03-30 20:22:00,60.0,43.0,30.03,SSE,168,4.0,5.0,53,0.00,,,8.44,,2013-03-31 00:22:00,
2013-03-30 20:30:00,58.0,42.0,30.03,SSE,168,5.0,6.0,56,0.00,,,0.00,,2013-03-31 00:30:00,
2013-03-30 20:32:00,60.0,43.0,30.03,SSE,168,4.0,5.0,53,0.00,,,8.44,,2013-03-31 00:32:00,
2013-03-30 20:43:00,60.0,43.0,30.03,SSE,168,4.0,5.0,53,0.00,,,8.44,,2013-03-31 00:43:00,
2013-03-30 20:53:00,58.0,42.0,30.03,SSE,168,5.0,6.0,56,0.00,,,0.00,,2013-03-31 00:53:00,
2013-03-30 21:02:00,58.0,42.0,30.03,SSE,168,5.0,6.0,56,0.00,,,0.00,,2013-03-31 01:02:00,
2013-03-30 21:12:00,58.0,42.0,30.03,SSE,168,5.0,6.0,56,0.00,,,0.00,,2013-03-31 01:12:00,
2013-03-30 21:22:00,58.0,42.0,30.03,SSE,168,5.0,6.0,56,0.00,,,0.00,,2013-03-31 01:22:00,
2013-03-30 21:53:00,57.0,44.0,30.03,South,170,4.0,6.0,62,0.00,,,0.00,,2013-03-31 01:53:00,
2013-03-30 22:02:00,57.0,44.0,30.03,South,170,4.0,6.0,62,0.00,,,0.00,,2013-03-31 02:02:00,
2013-03-30 22:13:00,57.0,44.0,30.03,South,170,4.0,6.0,62,0.00,,,0.00,,2013-03-31 02:13:00,
2013-03-30 22:22:00,56.0,42.0,30.03,SSE,168,0.0,6.0,60,0.00,,,0.00,,2013-03-31 02:22:00,
2013-03-30 22:30:00,55.0,43.0,30.03,South,169,0.0,0.0,63,0.00,,,0.00,,2013-03-31 02:30:00,
2013-03-30 22:32:00,56.0,42.0,30.03,SSE,168,0.0,6.0,60,0.00,,,0.00,,2013-03-31 02:32:00,
2013-03-30 22:43:00,56.0,42.0,30.03,SSE,168,0.0,6.0,60,0.00,,,0.00,,2013-03-31 02:43:00,
2013-03-30 22:52:00,55.0,43.0,30.03,South,169,0.0,0.0,63,0.00,,,0.00,,2013-03-31 02:52:00,
2013-03-30 23:02:00,55.0,43.0,30.03,South,169,0.0,0.0,63,0.00,,,0.00,,2013-03-31 03:02:00,
2013-03-30 23:13:00,55.0,43.0,30.03,South,169,0.0,0.0,63,0.00,,,0.00,,2013-03-31 03:13:00,
2013-03-30 23:22:00,55.0,43.0,30.03,South,169,0.0,0.0,63,0.00,,,0.00,,2013-03-31 03:22:00,
2013-03-30 23:54:00,54.0,51.0,30.03,SSE,167,4.0,4.0,90,0.00,,,0.00,,2013-03-31 03:54:00,